createdAt,value
2022-12-04T00:01:57.406Z,101477.00
2022-12-04T00:04:23.763Z,101477.16
2022-12-04T00:06:54.127Z,101472.59
2022-12-04T00:09:24.706Z,101470.06
2022-12-04T00:11:52.355Z,101465.69
2022-12-04T00:14:18.716Z,101466.44
2022-12-04T00:16:45.056Z,101467.56
2022-12-04T00:19:11.488Z,101467.44
2022-12-04T00:21:37.814Z,101471.75
2022-12-04T00:24:04.587Z,101471.69
2022-12-04T00:26:30.888Z,101477.47
2022-12-04T00:28:58.771Z,101473.78
2022-12-04T00:31:26.092Z,101482.63
2022-12-04T00:33:52.847Z,101479.94
2022-12-04T00:36:20.070Z,101472.94
2022-12-04T00:38:46.828Z,101472.09
2022-12-04T00:41:14.155Z,101474.84
2022-12-04T00:43:40.748Z,101481.78
2022-12-04T00:46:08.758Z,101477.25
2022-12-04T00:48:35.484Z,101472.09
2022-12-04T00:51:02.353Z,101470.16
2022-12-04T00:53:28.632Z,101469.31
2022-12-04T00:55:54.928Z,101468.53
2022-12-04T00:58:21.251Z,101472.78
2022-12-04T01:00:47.596Z,101473.09
2022-12-04T01:03:15.334Z,101469.78
2022-12-04T01:05:43.477Z,101474.84
2022-12-04T01:08:11.042Z,101472.09
2022-12-04T01:10:38.086Z,101473.84
2022-12-04T01:13:04.373Z,101472.16
2022-12-04T01:15:30.656Z,101475.47
2022-12-04T01:17:57.477Z,101468.53
2022-12-04T01:20:25.141Z,101473.00
2022-12-04T01:22:51.434Z,101470.41
2022-12-04T01:25:17.719Z,101476.47
2022-12-04T01:27:44.014Z,101478.16
2022-12-04T01:30:10.730Z,101474.09
2022-12-04T01:32:36.999Z,101473.34
2022-12-04T01:35:03.482Z,101471.47
2022-12-04T01:37:32.044Z,101475.78
2022-12-04T01:39:58.528Z,101475.63
2022-12-04T01:42:25.040Z,101470.47
2022-12-04T01:45:06.194Z,101472.25
2022-12-04T01:47:32.644Z,101464.31
2022-12-04T01:49:59.452Z,101465.16
2022-12-04T01:52:26.432Z,101471.16
2022-12-04T01:54:56.558Z,101470.25
2022-12-04T01:57:24.806Z,101470.16
2022-12-04T01:59:52.464Z,101464.09
2022-12-04T02:02:22.131Z,101465.00
2022-12-04T02:04:48.887Z,101461.63
2022-12-04T02:07:15.190Z,101456.53
2022-12-04T02:09:42.072Z,101448.53
2022-12-04T02:12:15.106Z,101452.16
2022-12-04T02:14:44.901Z,101452.16
2022-12-04T02:17:14.642Z,101446.94
2022-12-04T02:19:52.002Z,101445.09
2022-12-04T02:22:24.418Z,101447.19
2022-12-04T02:24:53.455Z,101442.69
2022-12-04T02:27:28.412Z,101452.16
2022-12-04T02:29:58.051Z,101455.69
2022-12-04T02:32:28.957Z,101452.31
2022-12-04T02:34:57.251Z,101456.53
2022-12-04T02:37:27.543Z,101452.31
2022-12-04T02:39:56.588Z,101440.84
2022-12-04T02:42:29.993Z,101447.91
2022-12-04T02:45:01.369Z,101444.31
2022-12-04T02:47:27.911Z,101442.69
2022-12-04T02:49:56.840Z,101443.53
2022-12-04T02:52:26.913Z,101451.47
2022-12-04T02:54:57.066Z,101447.19
2022-12-04T02:57:25.993Z,101440.19
2022-12-04T02:59:53.989Z,101447.06
2022-12-04T03:02:25.269Z,101453.06
2022-12-04T03:04:54.259Z,101446.94
2022-12-04T03:07:24.273Z,101448.84
2022-12-04T03:09:52.267Z,101448.09
2022-12-04T03:12:20.204Z,101445.50
2022-12-04T03:14:48.917Z,101445.56
2022-12-04T03:17:17.887Z,101441.00
2022-12-04T03:19:48.380Z,101449.94
2022-12-04T03:22:16.495Z,101447.06
2022-12-04T03:24:45.427Z,101452.31
2022-12-04T03:27:13.878Z,101448.25
2022-12-04T03:29:42.428Z,101444.72
2022-12-04T03:32:11.156Z,101437.66
2022-12-04T03:34:39.617Z,101441.00
2022-12-04T03:37:10.281Z,101435.75
2022-12-04T03:39:42.105Z,101439.34
2022-12-04T03:42:13.579Z,101435.75
2022-12-04T03:44:41.845Z,101438.50
2022-12-04T03:47:10.382Z,101446.22
2022-12-04T03:49:40.053Z,101441.09
2022-12-04T03:52:11.070Z,101440.06
2022-12-04T03:54:40.647Z,101440.19
2022-12-04T03:57:10.521Z,101437.66
2022-12-04T03:59:38.934Z,101446.22
2022-12-04T04:02:08.252Z,101440.34
2022-12-04T04:04:36.381Z,101449.88
2022-12-04T04:07:04.838Z,101442.03
2022-12-04T04:09:35.713Z,101444.03
2022-12-04T04:12:05.161Z,101442.81
2022-12-04T04:14:35.149Z,101432.34
2022-12-04T04:17:03.219Z,101432.41
2022-12-04T04:19:31.061Z,101431.56
2022-12-04T04:21:58.544Z,101433.25
2022-12-04T04:24:28.565Z,101428.09
2022-12-04T04:26:58.032Z,101426.47
2022-12-04T04:29:24.453Z,101430.72
2022-12-04T04:31:53.702Z,101429.78
2022-12-04T04:34:25.366Z,101435.09
2022-12-04T04:36:54.766Z,101427.19
2022-12-04T04:39:24.580Z,101429.88
2022-12-04T04:41:54.235Z,101424.72
2022-12-04T04:44:26.102Z,101423.78
2022-12-04T04:46:53.778Z,101426.47
2022-12-04T04:49:23.283Z,101424.56
2022-12-04T04:51:49.809Z,101434.25
2022-12-04T04:54:16.658Z,101425.56
2022-12-04T04:56:43.970Z,101428.47
2022-12-04T04:59:10.693Z,101434.75
2022-12-04T05:01:38.805Z,101432.72
2022-12-04T05:04:05.928Z,101437.09
2022-12-04T05:06:32.243Z,101442.34
2022-12-04T05:08:58.549Z,101437.03
2022-12-04T05:11:24.859Z,101436.88
2022-12-04T05:13:51.213Z,101433.34
2022-12-04T05:16:17.580Z,101432.41
2022-12-04T05:18:45.300Z,101427.19
2022-12-04T05:21:12.648Z,101435.94
2022-12-04T05:23:38.915Z,101434.56
2022-12-04T05:26:05.398Z,101429.50
2022-12-04T05:28:31.706Z,101431.63
2022-12-04T05:30:58.568Z,101427.34
2022-12-04T05:33:24.907Z,101429.03
2022-12-04T05:35:59.732Z,101429.63
2022-12-04T05:38:26.123Z,101431.63
2022-12-04T05:40:52.558Z,101421.03
2022-12-04T05:43:19.090Z,101430.66
2022-12-04T05:45:45.407Z,101421.09
2022-12-04T05:48:11.727Z,101422.03
2022-12-04T05:50:38.026Z,101416.66
2022-12-04T05:53:05.660Z,101413.47
2022-12-04T05:55:31.976Z,101413.47
2022-12-04T05:57:58.295Z,101411.78
2022-12-04T06:00:24.572Z,101418.41
2022-12-04T06:02:50.942Z,101411.50
2022-12-04T06:05:17.351Z,101411.31
2022-12-04T06:07:43.724Z,101406.25
2022-12-04T06:10:11.453Z,101405.16
2022-12-04T06:12:37.794Z,101406.19
2022-12-04T06:15:04.551Z,101408.78
2022-12-04T06:17:30.912Z,101408.78
2022-12-04T06:19:57.428Z,101413.91
2022-12-04T06:22:24.013Z,101418.56
2022-12-04T06:24:50.284Z,101424.56
2022-12-04T06:27:33.245Z,101420.25
2022-12-04T06:29:59.754Z,101425.50
2022-12-04T06:32:26.234Z,101425.72
2022-12-04T06:34:53.251Z,101426.41
2022-12-04T06:37:20.015Z,101422.88
2022-12-04T06:39:46.299Z,101425.63
2022-12-04T06:42:12.656Z,101425.63
2022-12-04T06:44:40.273Z,101422.25
2022-12-04T06:47:06.578Z,101427.34
2022-12-04T06:49:33.019Z,101421.34
2022-12-04T06:51:59.294Z,101422.41
2022-12-04T06:54:25.629Z,101418.28
2022-12-04T06:56:51.940Z,101429.75
2022-12-04T06:59:18.222Z,101447.28
2022-12-04T07:01:45.884Z,101442.22
2022-12-04T07:04:12.198Z,101444.97
2022-12-04T07:06:38.926Z,101437.06
2022-12-04T07:09:06.624Z,101441.44
2022-12-04T07:11:33.165Z,101443.28
2022-12-04T07:13:59.484Z,101447.53
2022-12-04T07:16:26.819Z,101442.28
2022-12-04T07:18:54.665Z,101452.91
2022-12-04T07:21:21.739Z,101457.22
2022-12-04T07:23:49.294Z,101459.97
2022-12-04T07:26:15.570Z,101460.66
2022-12-04T07:28:41.877Z,101452.75
2022-12-04T07:31:09.696Z,101454.44
2022-12-04T07:33:36.379Z,101455.28
2022-12-04T07:36:05.487Z,101467.41
2022-12-04T07:38:32.004Z,101463.13
2022-12-04T07:40:58.878Z,101470.13
2022-12-04T07:43:25.691Z,101470.72
2022-12-04T07:45:52.101Z,101462.88
2022-12-04T07:48:18.844Z,101468.66
2022-12-04T07:50:45.135Z,101468.66
2022-12-04T07:53:12.878Z,101483.59
2022-12-04T07:55:39.207Z,101469.66
2022-12-04T07:58:05.695Z,101474.81
2022-12-04T08:00:32.181Z,101480.56
2022-12-04T08:02:58.504Z,101479.88
2022-12-04T08:05:24.819Z,101473.50
2022-12-04T08:07:51.195Z,101481.25
2022-12-04T08:10:18.945Z,101480.63
2022-12-04T08:12:45.249Z,101475.25
2022-12-04T08:15:11.555Z,101473.34
2022-12-04T08:17:37.846Z,101480.84
2022-12-04T08:20:04.621Z,101485.09
2022-12-04T08:22:30.975Z,101473.78
2022-12-04T08:24:57.344Z,101472.69
2022-12-04T08:27:25.000Z,101470.75
2022-12-04T08:29:51.294Z,101475.00
2022-12-04T08:32:17.606Z,101477.59
2022-12-04T08:34:43.921Z,101469.84
2022-12-04T08:37:10.239Z,101469.75
2022-12-04T08:39:36.516Z,101471.44
2022-12-04T08:42:02.806Z,101463.53
2022-12-04T08:44:30.455Z,101465.22
2022-12-04T08:46:56.753Z,101463.97
2022-12-04T08:49:23.035Z,101461.34
2022-12-04T08:51:49.362Z,101459.50
2022-12-04T08:54:15.665Z,101462.88
2022-12-04T08:56:41.975Z,101466.22
2022-12-04T08:59:11.020Z,101462.88
2022-12-04T09:01:38.709Z,101463.72
2022-12-04T09:04:05.250Z,101470.47
2022-12-04T09:06:31.669Z,101461.59
2022-12-04T09:08:57.948Z,101470.16
2022-12-04T09:11:25.077Z,101466.44
2022-12-04T09:13:51.603Z,101476.25
2022-12-04T09:16:19.051Z,101483.06
2022-12-04T09:18:47.247Z,101474.28
2022-12-04T09:21:15.730Z,101463.72
2022-12-04T09:23:42.084Z,101468.66
2022-12-04T09:26:16.010Z,101471.34
2022-12-04T09:28:42.332Z,101473.88
2022-12-04T09:31:08.705Z,101473.88
2022-12-04T09:33:35.025Z,101469.38
2022-12-04T09:36:03.200Z,101469.53
2022-12-04T09:38:29.967Z,101466.16
2022-12-04T09:40:59.958Z,101474.69
2022-12-04T09:43:30.546Z,101470.47
2022-12-04T09:46:01.211Z,101479.72
2022-12-04T09:48:32.022Z,101490.03
2022-12-04T09:50:59.286Z,101484.66
2022-12-04T09:53:28.856Z,101491.66
2022-12-04T09:55:58.833Z,101496.72
2022-12-04T09:58:27.911Z,101491.75
2022-12-04T10:00:55.250Z,101495.28
2022-12-04T10:03:24.557Z,101485.47
2022-12-04T10:05:54.519Z,101469.63
2022-12-04T10:08:22.578Z,101477.41
2022-12-04T10:10:56.044Z,101470.72
2022-12-04T10:13:30.782Z,101479.25
2022-12-04T10:16:00.716Z,101473.25
2022-12-04T10:18:37.599Z,101472.31
2022-12-04T10:21:14.987Z,101475.53
2022-12-04T10:23:48.781Z,101474.69
2022-12-04T10:26:17.803Z,101478.75
2022-12-04T10:28:53.493Z,101493.59
2022-12-04T10:31:21.737Z,101498.19
2022-12-04T10:33:50.088Z,101489.06
2022-12-04T10:36:17.686Z,101486.72
2022-12-04T10:38:45.648Z,101481.06
2022-12-04T10:41:16.154Z,101474.88
2022-12-04T10:43:44.620Z,101463.41
2022-12-04T10:46:13.007Z,101467.63
2022-12-04T10:48:40.437Z,101470.59
2022-12-04T10:51:12.805Z,101467.97
2022-12-04T10:53:39.123Z,101461.97
2022-12-04T10:56:09.299Z,101465.50
2022-12-04T10:58:35.690Z,101465.44
2022-12-04T11:01:05.096Z,101453.19
2022-12-04T11:03:31.985Z,101447.94
2022-12-04T11:06:00.021Z,101454.88
2022-12-04T11:08:30.937Z,101444.41
2022-12-04T11:10:59.855Z,101444.47
2022-12-04T11:13:26.180Z,101452.19
2022-12-04T11:15:53.656Z,101447.19
2022-12-04T11:18:22.113Z,101437.63
2022-12-04T11:20:53.466Z,101438.31
2022-12-04T11:23:20.254Z,101437.81
2022-12-04T11:25:47.465Z,101442.94
2022-12-04T11:28:39.853Z,101442.72
2022-12-04T11:31:04.796Z,101440.09
2022-12-04T11:33:37.192Z,101439.94
2022-12-04T11:36:06.071Z,101435.69
2022-12-04T11:38:34.061Z,101439.25
2022-12-04T11:41:02.343Z,101440.09
2022-12-04T11:43:29.888Z,101433.00
2022-12-04T11:45:56.984Z,101436.38
2022-12-04T11:48:23.262Z,101440.69
2022-12-04T11:50:54.623Z,101434.34
2022-12-04T11:53:25.224Z,101428.94
2022-12-04T11:56:13.449Z,101418.31
2022-12-04T11:58:45.179Z,101424.28
2022-12-04T12:01:18.069Z,101414.66
2022-12-04T12:03:51.531Z,101418.19
2022-12-04T12:06:29.769Z,101425.31
2022-12-04T12:09:02.921Z,101417.19
2022-12-04T12:11:32.769Z,101412.97
2022-12-04T12:14:04.944Z,101409.63
2022-12-04T12:16:35.261Z,101409.50
2022-12-04T12:19:22.250Z,101402.59
2022-12-04T12:21:54.385Z,101401.75
2022-12-04T12:24:24.570Z,101399.78
2022-12-04T12:26:55.678Z,101399.72
2022-12-04T12:29:29.495Z,101390.06
2022-12-04T12:32:04.230Z,101396.00
2022-12-04T12:34:35.822Z,101388.91
2022-12-04T12:37:07.875Z,101392.38
2022-12-04T12:39:38.600Z,101389.56
2022-12-04T12:42:06.122Z,101386.94
2022-12-04T12:44:35.463Z,101388.63
2022-12-04T12:47:05.629Z,101392.00
2022-12-04T12:49:35.634Z,101397.41
2022-12-04T12:52:06.272Z,101391.16
2022-12-04T12:54:37.376Z,101396.56
2022-12-04T12:57:05.890Z,101387.88
2022-12-04T12:59:32.816Z,101393.94
2022-12-04T13:02:03.360Z,101398.47
2022-12-04T13:04:33.457Z,101394.88
2022-12-04T13:07:04.106Z,101392.94
2022-12-04T13:09:33.462Z,101396.00
2022-12-04T13:12:01.552Z,101402.25
2022-12-04T13:14:27.833Z,101392.53
2022-12-04T13:16:57.193Z,101390.84
2022-12-04T13:19:25.151Z,101392.84
2022-12-04T13:21:58.296Z,101381.13
2022-12-04T13:24:39.463Z,101371.34
2022-12-04T13:27:10.606Z,101372.75
2022-12-04T13:29:41.719Z,101370.81
2022-12-04T13:32:23.860Z,101371.59
2022-12-04T13:35:00.534Z,101377.75
2022-12-04T13:37:42.080Z,101368.97
2022-12-04T13:40:29.221Z,101369.03
2022-12-04T13:43:10.515Z,101368.03
2022-12-04T13:45:40.154Z,101375.69
2022-12-04T13:48:06.483Z,101389.56
2022-12-04T13:50:33.747Z,101375.69
2022-12-04T13:53:00.780Z,101389.91
2022-12-04T13:55:31.435Z,101382.81
2022-12-04T13:57:58.872Z,101380.53
2022-12-04T14:00:26.879Z,101380.38
2022-12-04T14:02:55.707Z,101386.13
2022-12-04T14:05:26.328Z,101379.59
2022-12-04T14:08:00.852Z,101383.16
2022-12-04T14:10:32.454Z,101367.28
2022-12-04T14:13:00.295Z,101365.75
2022-12-04T14:15:27.947Z,101364.66
2022-12-04T14:18:00.084Z,101368.97
2022-12-04T14:20:27.265Z,101370.06
2022-12-04T14:22:53.590Z,101366.50
2022-12-04T14:25:31.987Z,101362.03
2022-12-04T14:27:58.356Z,101352.25
2022-12-04T14:30:25.806Z,101353.81
2022-12-04T14:32:53.561Z,101357.13
2022-12-04T14:35:22.996Z,101349.34
2022-12-04T14:37:52.418Z,101352.13
2022-12-04T14:40:20.462Z,101351.41
2022-12-04T14:42:48.306Z,101351.03
2022-12-04T14:45:21.666Z,101359.56
2022-12-04T14:47:50.553Z,101365.66
2022-12-04T14:50:26.260Z,101364.88
2022-12-04T14:52:56.243Z,101378.16
2022-12-04T14:55:29.743Z,101383.38
2022-12-04T14:57:58.937Z,101385.84
2022-12-04T15:00:27.069Z,101387.53
2022-12-04T15:02:54.888Z,101381.44
2022-12-04T15:05:25.205Z,101383.06
2022-12-04T15:07:53.348Z,101388.09
2022-12-04T15:10:21.804Z,101390.63
2022-12-04T15:12:49.321Z,101388.88
2022-12-04T15:15:17.243Z,101388.88
2022-12-04T15:17:43.596Z,101387.09
2022-12-04T15:20:11.338Z,101380.84
2022-12-04T15:22:38.992Z,101384.63
2022-12-04T15:25:05.709Z,101383.63
2022-12-04T15:27:34.104Z,101374.00
2022-12-04T15:30:01.550Z,101371.28
2022-12-04T15:32:29.237Z,101371.22
2022-12-04T15:35:00.115Z,101372.97
2022-12-04T15:37:26.998Z,101378.13
2022-12-04T15:39:55.574Z,101385.22
2022-12-04T15:42:25.686Z,101392.25
2022-12-04T15:44:55.433Z,101388.03
2022-12-04T15:47:23.092Z,101394.88
2022-12-04T15:49:49.434Z,101381.53
2022-12-04T15:52:16.444Z,101386.00
2022-12-04T15:54:43.766Z,101395.47
2022-12-04T15:57:17.501Z,101391.81
2022-12-04T15:59:48.268Z,101387.41
2022-12-04T16:02:22.565Z,101383.78
2022-12-04T16:04:49.098Z,101389.88
2022-12-04T16:07:19.530Z,101388.00
2022-12-04T16:09:50.776Z,101391.28
2022-12-04T16:12:19.360Z,101392.41
2022-12-04T16:14:45.682Z,101383.59
2022-12-04T16:17:13.167Z,101388.75
2022-12-04T16:19:40.617Z,101391.19
2022-12-04T16:22:10.659Z,101387.63
2022-12-04T16:24:36.955Z,101381.47
2022-12-04T16:27:09.898Z,101386.44
2022-12-04T16:29:37.552Z,101392.13
2022-12-04T16:32:04.050Z,101390.16
2022-12-04T16:34:30.492Z,101390.25
2022-12-04T16:36:56.785Z,101394.66
2022-12-04T16:39:23.066Z,101399.81
2022-12-04T16:41:49.371Z,101389.41
2022-12-04T16:44:16.102Z,101393.63
2022-12-04T16:46:43.977Z,101399.72
2022-12-04T16:49:11.167Z,101400.81
2022-12-04T16:51:38.383Z,101395.56
2022-12-04T16:54:04.941Z,101400.94
2022-12-04T16:56:31.370Z,101406.81
2022-12-04T16:58:57.674Z,101410.28
2022-12-04T17:01:25.481Z,101398.97
2022-12-04T17:03:53.287Z,101394.56
2022-12-04T17:06:19.961Z,101396.25
2022-12-04T17:08:46.271Z,101396.94
2022-12-04T17:11:13.356Z,101402.94
2022-12-04T17:13:39.819Z,101399.47
2022-12-04T17:16:06.276Z,101402.34
2022-12-04T17:18:32.624Z,101404.97
2022-12-04T17:21:03.667Z,101404.88
2022-12-04T17:23:29.990Z,101401.97
2022-12-04T17:26:00.034Z,101399.34
2022-12-04T17:28:26.380Z,101413.81
2022-12-04T17:30:53.886Z,101419.72
2022-12-04T17:33:20.183Z,101419.91
2022-12-04T17:35:46.498Z,101417.28
2022-12-04T17:38:14.114Z,101416.69
2022-12-04T17:40:40.439Z,101414.16
2022-12-04T17:43:06.723Z,101421.28
2022-12-04T17:45:32.986Z,101423.16
2022-12-04T17:47:59.638Z,101426.53
2022-12-04T17:50:26.062Z,101430.72
2022-12-04T17:52:52.370Z,101428.19
2022-12-04T17:55:20.016Z,101423.72
2022-12-04T17:57:46.287Z,101433.44
2022-12-04T18:00:12.901Z,101433.44
2022-12-04T18:02:39.303Z,101433.34
2022-12-04T18:05:05.721Z,101431.50
2022-12-04T18:07:32.046Z,101434.03
2022-12-04T18:09:58.664Z,101433.00
2022-12-04T18:12:26.676Z,101421.75
2022-12-04T18:14:53.017Z,101425.31
2022-12-04T18:17:19.370Z,101416.69
2022-12-04T18:19:45.642Z,101416.69
2022-12-04T18:22:11.950Z,101418.66
2022-12-04T18:24:38.435Z,101422.13
2022-12-04T18:27:04.763Z,101413.31
2022-12-04T18:29:32.388Z,101415.94
2022-12-04T18:31:58.733Z,101414.91
2022-12-04T18:34:25.068Z,101418.38
2022-12-04T18:36:51.368Z,101418.28
2022-12-04T18:39:18.599Z,101411.38
2022-12-04T18:41:45.314Z,101418.03
2022-12-04T18:44:11.791Z,101408.75
2022-12-04T18:46:39.577Z,101401.63
2022-12-04T18:49:06.302Z,101405.09
2022-12-04T18:51:37.750Z,101402.31
2022-12-04T18:54:05.196Z,101400.41
2022-12-04T18:56:32.641Z,101404.81
2022-12-04T18:58:59.821Z,101411.09
2022-12-04T19:03:49.065Z,101405.03
2022-12-04T19:06:15.456Z,101409.03
2022-12-04T19:08:43.426Z,101408.19
2022-12-04T19:11:10.917Z,101412.59
2022-12-04T19:13:38.437Z,101407.34
2022-12-04T19:16:05.011Z,101410.47
2022-12-04T19:18:31.560Z,101422.25
2022-12-04T19:20:59.223Z,101414.28
2022-12-04T19:23:25.522Z,101426.22
2022-12-04T19:25:55.115Z,101424.69
2022-12-04T19:28:21.541Z,101424.78
2022-12-04T19:30:47.847Z,101414.13
2022-12-04T19:33:14.190Z,101421.38
2022-12-04T19:35:40.731Z,101425.63
2022-12-04T19:38:08.435Z,101424.78
2022-12-04T19:40:36.383Z,101427.47
2022-12-04T19:43:03.313Z,101425.63
2022-12-04T19:45:29.895Z,101435.25
2022-12-04T19:47:57.561Z,101436.03
2022-12-04T19:50:23.903Z,101435.84
2022-12-04T19:52:50.204Z,101429.16
2022-12-04T19:55:17.868Z,101433.31
2022-12-04T19:57:44.194Z,101425.63
2022-12-04T20:00:10.748Z,101432.63
2022-12-04T20:02:37.077Z,101431.53
2022-12-04T20:05:03.771Z,101438.91
2022-12-04T20:07:30.162Z,101435.53
2022-12-04T20:09:56.912Z,101436.19
2022-12-04T20:12:24.843Z,101435.47
2022-12-04T20:14:51.188Z,101432.84
2022-12-04T20:17:17.519Z,101436.41
2022-12-04T20:19:43.889Z,101435.63
2022-12-04T20:22:10.291Z,101428.63
2022-12-04T20:24:36.649Z,101435.25
2022-12-04T20:27:03.003Z,101427.69
2022-12-04T20:29:30.718Z,101427.47
2022-12-04T20:31:57.059Z,101428.78
2022-12-04T20:34:23.361Z,101424.38
2022-12-04T20:36:49.731Z,101428.53
2022-12-04T20:39:16.571Z,101426.84
2022-12-04T20:41:42.976Z,101428.63
2022-12-04T20:44:12.014Z,101430.38
2022-12-04T20:46:40.040Z,101429.38
2022-12-04T20:49:08.215Z,101432.00
2022-12-04T20:51:35.760Z,101432.72
2022-12-04T20:54:02.172Z,101430.94
2022-12-04T20:56:29.634Z,101437.25
2022-12-04T20:58:56.388Z,101440.78
2022-12-04T21:01:22.994Z,101437.31
2022-12-04T21:03:51.474Z,101444.44
2022-12-04T21:06:19.051Z,101440.72
2022-12-04T21:08:45.977Z,101439.75
2022-12-04T21:11:12.297Z,101441.72
2022-12-04T21:13:38.851Z,101439.00
2022-12-04T21:16:05.351Z,101439.75
2022-12-04T21:18:31.741Z,101437.13
2022-12-04T21:21:01.106Z,101431.88
2022-12-04T21:23:27.455Z,101437.97
2022-12-04T21:25:54.864Z,101432.94
2022-12-04T21:28:21.164Z,101432.94
2022-12-04T21:30:47.555Z,101433.78
2022-12-04T21:33:13.978Z,101433.78
2022-12-04T21:35:40.294Z,101426.84
2022-12-04T21:38:07.976Z,101431.16
2022-12-04T21:40:38.996Z,101426.84
2022-12-04T21:43:08.430Z,101426.84
2022-12-04T21:45:34.740Z,101427.59
2022-12-04T21:48:01.076Z,101427.69
2022-12-04T21:50:27.406Z,101420.66
2022-12-04T21:52:54.259Z,101424.00
2022-12-04T21:55:21.975Z,101421.31
2022-12-04T21:57:48.260Z,101425.53
2022-12-04T22:00:15.057Z,101426.56
2022-12-04T22:02:41.452Z,101429.09
2022-12-04T22:05:08.388Z,101424.59
2022-12-04T22:07:34.772Z,101424.44
2022-12-04T22:10:05.460Z,101422.66
2022-12-04T22:12:52.115Z,101425.28
2022-12-04T22:15:18.487Z,101432.63
2022-12-04T22:17:44.891Z,101433.50
2022-12-04T22:20:11.442Z,101428.41
2022-12-04T22:22:37.843Z,101434.50
2022-12-04T22:25:04.354Z,101433.66
2022-12-04T22:27:30.696Z,101444.06
2022-12-04T22:29:58.472Z,101436.09
2022-12-04T22:32:24.772Z,101441.50
2022-12-04T22:34:51.139Z,101439.75
2022-12-04T22:37:17.535Z,101440.72
2022-12-04T22:39:43.871Z,101444.97
2022-12-04T22:42:10.167Z,101447.59
2022-12-04T22:44:36.479Z,101451.84
2022-12-04T22:47:04.378Z,101451.75
2022-12-04T22:49:30.735Z,101455.38
2022-12-04T22:51:57.615Z,101454.38
2022-12-04T22:54:23.936Z,101459.53
2022-12-04T22:56:50.278Z,101458.59
2022-12-04T22:59:16.574Z,101459.63
2022-12-04T23:01:42.880Z,101459.63
2022-12-04T23:04:10.543Z,101451.66
2022-12-04T23:06:36.853Z,101450.66
2022-12-04T23:09:04.474Z,101457.47
2022-12-04T23:11:31.041Z,101454.03
2022-12-04T23:13:58.367Z,101450.66
2022-12-04T23:16:24.817Z,101451.59
2022-12-04T23:18:51.498Z,101449.91
2022-12-04T23:21:19.739Z,101450.56
2022-12-04T23:23:46.514Z,101448.03
2022-12-04T23:26:13.867Z,101453.28
2022-12-04T23:28:40.222Z,101445.22
2022-12-04T23:31:06.601Z,101442.50
2022-12-04T23:33:33.300Z,101450.38
2022-12-04T23:36:00.793Z,101443.19
2022-12-04T23:38:28.825Z,101437.94
2022-12-04T23:41:00.279Z,101434.63
2022-12-04T23:43:26.549Z,101439.13
2022-12-04T23:45:52.844Z,101434.63
2022-12-04T23:48:19.158Z,101444.09
2022-12-04T23:50:45.454Z,101440.63
2022-12-04T23:53:11.740Z,101443.34
2022-12-04T23:55:39.366Z,101442.41
2022-12-04T23:58:05.666Z,101446.72
